Time;durP1;ratioP1;P1;durP2;ratioP2;P2;SDS_P1;SDS_P2;PMS_P1;PMS_P2;Temp;Humidity;BMP_temperature;BMP_pressure;BME280_temperature;BME280_humidity;BME280_pressure;Samples;Min_cycle;Max_cycle;Signal;HPM_P1;HPM_P2
2022/07/20 00:01:34;;;;;;;5.90;4.40;;;;;;;26.13;31.26;100974.28;5013545;28;20037;-86
2022/07/20 00:04:00;;;;;;;6.40;4.50;;;;;;;26.11;31.88;100979.06;5009563;28;20069;-85
2022/07/20 00:06:25;;;;;;;9.55;4.43;;;;;;;26.09;31.77;100972.94;5015475;28;20026;-86
2022/07/20 00:11:35;;;;;;;9.02;4.22;;;;;;;25.98;31.60;100974.16;5031045;28;20128;-86
2022/07/20 00:14:02;;;;;;;6.35;4.28;;;;;;;26.01;31.67;100989.34;5018682;28;20453;-86
2022/07/20 00:16:29;;;;;;;4.93;4.38;;;;;;;25.96;33.22;100976.22;5019719;28;20030;-86
2022/07/20 00:18:54;;;;;;;5.32;4.25;;;;;;;25.91;32.36;100975.88;5032131;28;20104;-86
2022/07/20 00:21:20;;;;;;;7.95;4.50;;;;;;;25.87;33.09;100977.25;5036535;28;20069;-87
2022/07/20 00:23:46;;;;;;;9.65;4.63;;;;;;;25.79;32.78;100969.97;5016318;28;20045;-87
2022/07/20 00:26:11;;;;;;;8.13;4.63;;;;;;;25.75;32.94;100973.16;5026553;28;20104;-86
2022/07/20 00:28:37;;;;;;;7.32;4.30;;;;;;;25.67;32.46;100962.31;5023224;28;20503;-86
2022/07/20 00:31:02;;;;;;;5.95;4.30;;;;;;;25.65;32.56;100970.63;5006056;28;20027;-86
2022/07/20 00:33:28;;;;;;;5.07;4.47;;;;;;;25.60;32.36;100962.13;5011945;28;20088;-87
2022/07/20 00:35:53;;;;;;;7.63;4.35;;;;;;;25.60;32.58;100967.59;5009576;28;20061;-87
2022/07/20 00:38:18;;;;;;;7.45;4.20;;;;;;;25.57;32.63;100968.75;5020393;28;20038;-86
2022/07/20 00:40:44;;;;;;;6.88;4.53;;;;;;;25.53;32.70;100972.00;5039314;28;20025;-85
2022/07/20 00:43:09;;;;;;;8.05;4.90;;;;;;;25.50;32.21;100966.91;5012258;28;20030;-86
2022/07/20 00:45:34;;;;;;;8.20;4.63;;;;;;;25.44;33.54;100975.78;5022644;28;20037;-87
2022/07/20 00:48:02;;;;;;;6.85;4.32;;;;;;;25.37;34.24;100991.09;5020495;28;20098;-87
2022/07/20 00:50:27;;;;;;;8.00;4.97;;;;;;;25.18;35.00;101039.44;5024797;28;20033;-87
2022/07/20 00:52:53;;;;;;;6.78;5.05;;;;;;;25.10;33.86;100995.88;5012345;28;20038;-86
2022/07/20 00:55:19;;;;;;;7.68;5.15;;;;;;;25.03;33.82;100989.34;5022938;28;20088;-88
2022/07/20 00:57:44;;;;;;;6.88;4.88;;;;;;;24.99;34.51;100993.44;5029924;28;20041;-86
2022/07/20 01:00:10;;;;;;;8.10;4.85;;;;;;;24.98;35.75;100997.19;5025300;28;20037;-88
2022/07/20 01:02:37;;;;;;;7.43;4.95;;;;;;;24.94;35.00;101014.88;5021963;28;20019;-86
2022/07/20 01:05:05;;;;;;;6.55;4.95;;;;;;;24.85;35.73;101035.78;5030487;28;20029;-86
2022/07/20 01:07:30;;;;;;;8.43;4.78;;;;;;;24.71;34.72;101015.50;5018276;28;20085;-88
2022/07/20 01:09:56;;;;;;;5.78;4.82;;;;;;;24.75;35.63;101025.06;5022006;28;20413;-86
2022/07/20 01:12:21;;;;;;;8.07;5.03;;;;;;;24.71;35.62;101004.63;5030823;28;20026;-87
2022/07/20 01:14:53;;;;;;;5.63;4.65;;;;;;;24.73;35.18;101037.97;5018813;28;20046;-87
2022/07/20 01:17:18;;;;;;;6.57;4.65;;;;;;;24.66;35.61;101026.00;5002142;28;20030;-88
2022/07/20 01:19:43;;;;;;;7.05;4.60;;;;;;;24.70;35.06;101000.19;5002866;28;20042;-87
2022/07/20 01:22:08;;;;;;;7.75;5.05;;;;;;;24.67;35.59;101008.69;5003125;28;20030;-87
2022/07/20 01:24:34;;;;;;;9.90;4.95;;;;;;;24.66;35.56;101017.00;5006559;28;20033;-87
2022/07/20 01:26:59;;;;;;;10.10;5.18;;;;;;;24.63;35.60;101012.75;5020121;28;20062;-86
2022/07/20 01:29:24;;;;;;;8.15;4.70;;;;;;;24.61;36.57;101025.66;5014792;28;20033;-88
2022/07/20 01:31:50;;;;;;;7.82;4.90;;;;;;;24.58;36.50;101021.44;5015279;28;20026;-88
2022/07/20 01:34:15;;;;;;;7.68;4.72;;;;;;;24.51;36.90;101014.94;5029192;28;20072;-87
2022/07/20 01:36:40;;;;;;;8.20;4.60;;;;;;;24.48;37.30;101014.41;5010604;28;20042;-87
2022/07/20 01:39:06;;;;;;;6.80;4.90;;;;;;;24.44;36.88;101013.03;5018840;28;20426;-88
2022/07/20 01:41:31;;;;;;;7.97;4.85;;;;;;;24.44;37.02;101010.31;5031630;28;20060;-87
2022/07/20 01:43:56;;;;;;;8.77;5.10;;;;;;;24.38;37.22;101006.38;5019893;28;20033;-88
2022/07/20 01:46:22;;;;;;;4.97;4.50;;;;;;;24.31;36.69;100988.97;5010932;28;20285;-87
2022/07/20 01:48:47;;;;;;;5.82;5.22;;;;;;;24.29;36.72;100991.88;5020953;28;20034;-88
2022/07/20 01:51:12;;;;;;;7.13;5.20;;;;;;;24.24;37.29;101007.81;5050155;28;20025;-87
2022/07/20 01:53:38;;;;;;;9.52;5.60;;;;;;;24.21;37.10;101008.16;5025460;28;20026;-87
2022/07/20 01:56:03;;;;;;;8.05;5.75;;;;;;;24.18;37.28;101007.63;5036138;28;20025;-87
2022/07/20 01:58:28;;;;;;;10.15;6.00;;;;;;;24.17;37.23;101005.91;5024807;28;20062;-87
2022/07/20 02:00:54;;;;;;;8.88;6.00;;;;;;;24.17;37.76;101008.63;5025448;28;20022;-86
2022/07/20 02:03:19;;;;;;;8.60;5.82;;;;;;;24.05;38.09;101011.63;5031975;28;20022;-88
2022/07/20 02:05:45;;;;;;;9.75;5.95;;;;;;;23.98;38.29;101005.13;5030136;28;20014;-88
2022/07/20 02:08:10;;;;;;;8.40;5.90;;;;;;;24.01;37.87;101010.25;5034585;28;20030;-88
2022/07/20 02:10:36;;;;;;;9.75;6.32;;;;;;;23.96;38.03;101017.19;5034116;28;20030;-87
2022/07/20 02:13:01;;;;;;;11.70;6.20;;;;;;;23.89;37.63;101016.13;5032797;28;20062;-87
2022/07/20 02:18:12;;;;;;;11.40;6.88;;;;;;;23.70;38.27;101036.19;5042833;28;20129;-87
2022/07/20 02:20:39;;;;;;;9.90;5.60;;;;;;;23.64;37.63;101032.22;5030435;28;20056;-87
2022/07/20 02:23:06;;;;;;;13.50;6.00;;;;;;;23.64;36.97;101043.09;5010494;28;20034;-87
2022/07/20 02:25:32;;;;;;;10.52;6.05;;;;;;;23.78;36.30;101044.41;5005408;28;20034;-87
2022/07/20 02:27:57;;;;;;;8.75;5.65;;;;;;;23.90;36.13;101042.28;5035402;28;20033;-86
2022/07/20 02:30:23;;;;;;;9.48;6.45;;;;;;;23.99;36.52;101031.28;5029419;28;20025;-87
2022/07/20 02:32:48;;;;;;;10.60;6.70;;;;;;;23.99;36.44;101042.16;5018008;28;20056;-86
2022/07/20 02:35:15;;;;;;;7.20;6.38;;;;;;;24.06;37.00;101042.38;5019619;28;20450;-87
2022/07/20 02:37:40;;;;;;;16.48;10.05;;;;;;;24.05;39.70;101040.69;5013464;28;20022;-86
2022/07/20 02:40:07;;;;;;;16.05;11.35;;;;;;;24.08;41.09;101040.38;5021550;28;20040;-85
2022/07/20 02:42:32;;;;;;;20.85;13.65;;;;;;;24.05;42.56;101046.97;5018738;28;20764;-84
2022/07/20 02:44:57;;;;;;;20.08;13.90;;;;;;;24.02;43.08;101046.44;5027150;28;20014;-85
2022/07/20 02:47:23;;;;;;;20.70;13.18;;;;;;;23.99;43.48;101050.31;5024407;28;20067;-85
2022/07/20 02:49:48;;;;;;;22.42;14.50;;;;;;;23.95;44.21;101059.81;5031457;28;20028;-87
2022/07/20 02:52:13;;;;;;;23.45;14.73;;;;;;;23.90;44.62;101054.00;4998286;28;20137;-88
2022/07/20 02:54:38;;;;;;;17.50;15.00;;;;;;;23.87;44.93;101059.78;4999351;28;20034;-86
2022/07/20 02:57:04;;;;;;;24.13;16.02;;;;;;;23.85;45.56;101059.06;5020902;28;20041;-87
2022/07/20 02:59:29;;;;;;;21.08;16.83;;;;;;;23.78;46.46;101049.84;5008133;28;20061;-87
2022/07/20 03:01:54;;;;;;;21.65;17.23;;;;;;;23.75;47.22;101053.75;5005512;28;20038;-87
2022/07/20 03:04:19;;;;;;;24.95;18.95;;;;;;;23.67;48.21;101053.69;5007812;28;20113;-86
2022/07/20 03:06:45;;;;;;;25.95;19.50;;;;;;;23.63;49.15;101060.41;5008602;28;20030;-85
2022/07/20 03:09:10;;;;;;;29.75;20.45;;;;;;;23.60;49.49;101063.44;4997357;28;20037;-86
2022/07/20 03:11:35;;;;;;;25.75;20.38;;;;;;;23.54;50.44;101066.78;5004468;28;20041;-87
2022/07/20 03:14:00;;;;;;;28.15;20.60;;;;;;;23.52;50.41;101066.94;4998262;28;20392;-87
2022/07/20 03:16:26;;;;;;;29.55;21.52;;;;;;;23.47;51.38;101058.41;5008680;28;20032;-87
2022/07/20 03:18:51;;;;;;;34.85;22.92;;;;;;;23.41;51.71;101058.16;4999840;28;20053;-87
2022/07/20 03:21:16;;;;;;;30.90;22.33;;;;;;;23.33;52.55;101062.53;4996212;28;20025;-88
2022/07/20 03:23:42;;;;;;;29.95;23.02;;;;;;;23.33;52.77;101073.41;5005876;28;20022;-86
2022/07/20 03:26:07;;;;;;;34.22;23.55;;;;;;;23.26;53.51;101072.31;5003768;28;20073;-86
2022/07/20 03:28:32;;;;;;;30.77;23.00;;;;;;;23.30;53.19;101076.41;5005432;28;20072;-87
2022/07/20 03:30:58;;;;;;;32.63;23.48;;;;;;;23.28;53.57;101092.03;5005244;28;20087;-87
2022/07/20 03:33:23;;;;;;;31.55;24.63;;;;;;;23.19;53.76;101097.50;5007621;28;20075;-87
2022/07/20 03:35:48;;;;;;;29.77;24.88;;;;;;;23.14;54.45;101095.25;5006530;28;20041;-87
2022/07/20 03:38:13;;;;;;;31.17;24.00;;;;;;;23.14;54.69;101110.69;4999030;28;20018;-86
2022/07/20 03:40:38;;;;;;;33.00;24.88;;;;;;;23.10;55.10;101111.00;5012799;28;20498;-87
2022/07/20 03:43:04;;;;;;;31.50;25.23;;;;;;;23.07;55.04;101116.75;5000967;28;20018;-87
2022/07/20 03:45:29;;;;;;;36.47;25.42;;;;;;;23.07;54.90;101121.31;5001612;28;20030;-87
2022/07/20 03:47:55;;;;;;;31.15;25.48;;;;;;;23.05;54.59;101123.34;5005587;28;20410;-87
2022/07/20 03:50:20;;;;;;;34.47;25.23;;;;;;;23.03;54.75;101119.91;5030407;28;20508;-87
2022/07/20 03:52:45;;;;;;;33.28;24.85;;;;;;;23.05;54.16;101128.75;5008514;28;20029;-87
2022/07/20 03:55:11;;;;;;;30.90;24.05;;;;;;;23.00;54.31;101122.94;5004494;28;20044;-87
2022/07/20 03:57:36;;;;;;;33.50;23.33;;;;;;;22.99;54.42;101143.81;5016496;28;20059;-87
2022/07/20 04:00:02;;;;;;;32.92;24.08;;;;;;;22.97;54.22;101148.50;4998751;28;20030;-87
2022/07/20 04:02:28;;;;;;;30.35;23.52;;;;;;;22.94;53.55;101146.09;4994448;28;20137;-88
2022/07/20 04:04:53;;;;;;;30.42;23.40;;;;;;;22.92;53.69;101155.41;5001379;28;20508;-86
2022/07/20 04:07:18;;;;;;;33.63;23.38;;;;;;;22.88;53.80;101161.09;4996861;28;20494;-87
2022/07/20 04:09:44;;;;;;;27.70;22.85;;;;;;;22.87;53.58;101170.25;5001597;28;20048;-88
2022/07/20 04:12:11;;;;;;;29.38;23.08;;;;;;;22.87;54.02;101164.81;5001380;28;20472;-87
2022/07/20 04:14:37;;;;;;;31.42;23.73;;;;;;;22.89;54.15;101172.81;5007263;28;20474;-87
2022/07/20 04:17:03;;;;;;;27.45;23.35;;;;;;;22.86;54.20;101164.97;5010706;28;20108;-86
2022/07/20 04:19:28;;;;;;;31.17;22.85;;;;;;;22.89;54.58;101172.81;5009934;28;20032;-86
2022/07/20 04:21:58;;;;;;;30.35;23.65;;;;;;;22.90;54.42;101177.25;5014699;28;20084;-85
2022/07/20 04:24:24;;;;;;;32.60;24.08;;;;;;;22.92;54.46;101177.13;5009034;28;20081;-85
2022/07/20 04:26:50;;;;;;;30.98;23.38;;;;;;;22.86;54.24;101171.25;5001870;28;20042;-87
2022/07/20 04:29:15;;;;;;;29.25;23.30;;;;;;;22.99;54.26;101178.22;5018665;28;20054;-87
2022/07/20 04:31:40;;;;;;;31.88;24.17;;;;;;;23.07;54.29;101181.03;4999534;28;20062;-87
2022/07/20 04:34:06;;;;;;;29.52;24.70;;;;;;;23.12;54.02;101186.88;4995983;28;20026;-87
2022/07/20 04:36:31;;;;;;;30.48;23.65;;;;;;;23.24;53.87;101193.81;5008113;28;20029;-87
2022/07/20 04:38:56;;;;;;;28.40;23.67;;;;;;;23.32;53.79;101196.59;5004051;28;20030;-87
2022/07/20 04:41:21;;;;;;;31.00;23.83;;;;;;;23.40;53.14;101197.72;5004076;28;20051;-88
2022/07/20 04:43:47;;;;;;;29.95;25.25;;;;;;;23.44;53.11;101188.25;5001178;28;20459;-87
2022/07/20 04:46:12;;;;;;;30.15;23.23;;;;;;;23.46;53.00;101207.97;5004219;28;20038;-87
2022/07/20 04:48:37;;;;;;;33.75;24.38;;;;;;;23.48;53.19;101200.53;5005795;28;20034;-86
2022/07/20 04:51:02;;;;;;;32.85;24.38;;;;;;;23.54;53.01;101205.34;5006650;28;20014;-86
2022/07/20 04:53:28;;;;;;;28.15;22.80;;;;;;;23.60;53.58;101213.72;5002347;28;20026;-86
2022/07/20 04:55:53;;;;;;;28.45;23.30;;;;;;;23.58;52.97;101213.03;5016190;28;20030;-85
2022/07/20 04:58:18;;;;;;;31.60;23.67;;;;;;;23.57;52.98;101211.31;5003484;28;20405;-87
2022/07/20 05:00:44;;;;;;;27.83;22.75;;;;;;;23.56;52.61;101214.19;4995673;28;20022;-87
2022/07/20 05:03:09;;;;;;;30.77;23.58;;;;;;;23.48;52.68;101211.38;5006991;28;20127;-87
2022/07/20 05:05:34;;;;;;;30.45;22.20;;;;;;;23.43;52.82;101205.56;5006096;28;20185;-87
2022/07/20 05:08:00;;;;;;;32.35;22.48;;;;;;;23.41;52.42;101215.72;5003021;28;20037;-87
2022/07/20 05:10:25;;;;;;;27.58;22.50;;;;;;;23.34;52.91;101202.75;4999009;28;20037;-86
2022/07/20 05:12:50;;;;;;;29.02;22.92;;;;;;;23.36;52.71;101211.59;5004681;28;20353;-86
2022/07/20 05:15:16;;;;;;;28.30;21.45;;;;;;;23.37;52.96;101207.03;5006299;28;20038;-86
2022/07/20 05:17:41;;;;;;;30.73;22.15;;;;;;;23.39;53.09;101206.88;5013683;28;20480;-87
2022/07/20 05:20:07;;;;;;;28.23;21.92;;;;;;;23.47;53.03;101209.69;5002590;28;20113;-87
2022/07/20 05:22:32;;;;;;;29.80;21.50;;;;;;;23.53;52.89;101209.91;5018284;28;20105;-87
2022/07/20 05:24:57;;;;;;;25.33;21.75;;;;;;;23.61;51.70;101214.56;5010225;28;20053;-88
2022/07/20 05:27:23;;;;;;;24.70;20.63;;;;;;;23.63;52.34;101218.00;5020350;28;20132;-90
2022/07/20 05:29:48;;;;;;;25.23;20.60;;;;;;;23.73;51.46;101235.13;4997153;28;20029;-88
2022/07/20 05:32:13;;;;;;;26.08;20.13;;;;;;;23.77;52.04;101232.97;5006160;28;20041;-87
2022/07/20 05:34:39;;;;;;;28.20;21.52;;;;;;;23.86;51.42;101246.47;5005479;28;20097;-88
2022/07/20 05:37:04;;;;;;;30.48;22.83;;;;;;;23.85;51.98;101257.50;5006521;28;20114;-86
2022/07/20 05:39:29;;;;;;;27.10;22.08;;;;;;;23.85;52.42;101263.78;5000982;28;20042;-88
2022/07/20 05:41:54;;;;;;;29.75;22.00;;;;;;;23.76;52.52;101263.88;5001718;28;20060;-87
2022/07/20 05:44:20;;;;;;;26.52;22.05;;;;;;;23.76;52.09;101263.88;5009052;28;20033;-88
2022/07/20 05:46:45;;;;;;;29.02;21.40;;;;;;;23.75;52.23;101273.88;5011529;28;20037;-87
2022/07/20 05:49:10;;;;;;;28.23;21.15;;;;;;;23.89;52.59;101279.81;4999613;28;20125;-87
2022/07/20 05:51:36;;;;;;;26.45;20.10;;;;;;;23.98;52.29;101268.00;5014084;28;20040;-87
2022/07/20 05:54:01;;;;;;;27.15;21.20;;;;;;;24.07;51.07;101283.38;5006062;28;20026;-87
2022/07/20 05:56:28;;;;;;;25.70;20.73;;;;;;;24.10;51.37;101273.03;5006309;28;20029;-88
2022/07/20 05:58:53;;;;;;;25.35;20.40;;;;;;;24.23;50.87;101283.53;5026455;28;20040;-89
2022/07/20 06:01:18;;;;;;;29.10;21.13;;;;;;;24.43;50.53;101284.25;5029620;28;20014;-89
2022/07/20 06:03:44;;;;;;;26.80;20.27;;;;;;;24.55;49.76;101279.41;5027432;28;20021;-89
2022/07/20 06:06:09;;;;;;;25.00;19.83;;;;;;;24.71;49.54;101311.34;5023207;28;20104;-89
2022/07/20 06:08:36;;;;;;;24.60;19.75;;;;;;;24.82;49.39;101320.09;5022041;28;20021;-88
2022/07/20 06:11:01;;;;;;;25.05;18.05;;;;;;;24.76;48.90;101318.00;5021106;28;20021;-88
2022/07/20 06:13:27;;;;;;;22.33;17.67;;;;;;;24.73;48.52;101331.94;5024686;28;20221;-88
2022/07/20 06:15:52;;;;;;;23.20;17.17;;;;;;;24.65;48.81;101334.59;5033421;28;20026;-88
2022/07/20 06:18:18;;;;;;;21.92;17.48;;;;;;;24.57;48.86;101327.22;5028995;28;20026;-87
2022/07/20 06:20:43;;;;;;;21.98;17.08;;;;;;;24.46;48.67;101337.50;5018894;28;20041;-88
2022/07/20 06:23:08;;;;;;;24.13;18.50;;;;;;;24.35;49.18;101336.69;5030842;28;20431;-88
2022/07/20 06:25:33;;;;;;;22.05;17.80;;;;;;;24.28;49.13;101348.34;5004499;28;20034;-88
2022/07/20 06:28:00;;;;;;;24.45;18.95;;;;;;;24.26;49.77;101342.22;4999827;28;20026;-88
2022/07/20 06:30:26;;;;;;;28.08;21.05;;;;;;;24.32;49.36;101358.75;5000139;28;20030;-90
2022/07/20 06:32:51;;;;;;;28.58;19.95;;;;;;;24.46;49.58;101370.16;5010635;28;20040;-88
2022/07/20 06:35:17;;;;;;;23.95;19.20;;;;;;;24.68;49.00;101380.56;5006662;28;20085;-89
2022/07/20 06:37:42;;;;;;;22.92;17.90;;;;;;;24.83;48.56;101384.44;5005584;28;20061;-90
2022/07/20 06:40:08;;;;;;;25.55;19.15;;;;;;;24.79;49.03;101398.53;5007227;28;20018;-91
2022/07/20 06:42:34;;;;;;;24.65;19.08;;;;;;;24.81;49.19;101402.78;5000084;28;20034;-90
2022/07/20 06:44:59;;;;;;;24.00;19.02;;;;;;;24.64;48.52;101411.81;4994031;28;20033;-90
2022/07/20 06:47:24;;;;;;;23.48;19.38;;;;;;;24.54;49.45;101411.06;5012891;28;20476;-92
2022/07/20 06:49:50;;;;;;;27.13;19.42;;;;;;;24.58;51.23;101412.47;5004398;28;20436;-92
2022/07/20 06:52:15;;;;;;;24.90;20.77;;;;;;;24.47;53.28;101415.41;4992529;28;20034;-89
2022/07/20 06:54:40;;;;;;;25.60;20.05;;;;;;;24.45;53.10;101420.13;5006068;28;20042;-91
2022/07/20 06:57:06;;;;;;;26.17;21.20;;;;;;;24.41;52.70;101416.84;5003546;28;20038;-91
2022/07/20 06:59:31;;;;;;;31.92;20.30;;;;;;;24.56;52.53;101417.19;4996124;28;20030;-90
2022/07/20 07:01:57;;;;;;;24.73;19.02;;;;;;;24.79;53.31;101426.59;4998317;28;20407;-92
2022/07/20 07:04:22;;;;;;;24.90;19.33;;;;;;;24.85;50.73;101428.69;5016297;28;20029;-91
2022/07/20 07:06:48;;;;;;;25.00;19.70;;;;;;;24.84;51.11;101435.16;5003616;28;20447;-92
2022/07/20 07:09:13;;;;;;;30.95;19.98;;;;;;;24.75;50.53;101443.41;4996839;28;20475;-90
2022/07/20 07:11:38;;;;;;;27.30;18.75;;;;;;;24.73;50.61;101429.94;5003761;28;20029;-91
2022/07/20 07:14:05;;;;;;;27.45;19.40;;;;;;;24.90;50.33;101424.63;5012250;28;20074;-90
2022/07/20 07:16:31;;;;;;;24.23;18.83;;;;;;;24.94;50.02;101423.31;5024505;28;20097;-90
2022/07/20 07:18:56;;;;;;;26.38;18.98;;;;;;;24.83;49.82;101432.56;5018076;28;20037;-90
2022/07/20 07:21:22;;;;;;;26.13;18.92;;;;;;;24.69;49.23;101422.25;5021996;28;20468;-88
2022/07/20 07:23:49;;;;;;;23.67;18.77;;;;;;;24.68;49.77;101432.28;5003036;28;20030;-88
2022/07/20 07:26:19;;;;;;;26.75;18.98;;;;;;;24.71;50.60;101440.13;5002733;28;20018;-90
2022/07/20 07:28:45;;;;;;;27.15;18.73;;;;;;;25.01;49.23;101443.47;4994355;28;20487;-88
2022/07/20 07:31:11;;;;;;;23.38;18.20;;;;;;;25.46;48.85;101447.91;4993534;28;20026;-87
2022/07/20 07:33:36;;;;;;;25.02;19.65;;;;;;;25.93;47.51;101463.88;5007192;28;20228;-87
2022/07/20 07:36:02;;;;;;;26.30;18.67;;;;;;;26.43;46.77;101471.22;4997601;28;20041;-82
2022/07/20 07:38:28;;;;;;;23.15;17.63;;;;;;;26.82;46.57;101476.97;4995472;28;20141;-83
2022/07/20 07:40:53;;;;;;;23.60;17.50;;;;;;;27.38;44.89;101486.25;5008150;28;20113;-83
2022/07/20 07:43:19;;;;;;;19.95;16.02;;;;;;;28.03;43.31;101501.66;4994756;28;20332;-82
2022/07/20 07:45:44;;;;;;;20.55;16.08;;;;;;;28.50;42.43;101503.53;4995412;28;20463;-82
2022/07/20 07:48:10;;;;;;;18.38;15.90;;;;;;;28.76;40.09;101494.97;5007001;28;20545;-82
2022/07/20 07:50:39;;;;;;;23.17;16.25;;;;;;;28.62;40.28;101493.03;5004731;28;20022;-82
2022/07/20 07:53:07;;;;;;;17.30;14.20;;;;;;;28.58;40.52;101506.22;4994704;28;20157;-81
2022/07/20 07:55:35;;;;;;;17.95;14.40;;;;;;;28.40;40.79;101494.69;4999577;28;20546;-81
2022/07/20 07:58:00;;;;;;;18.08;13.93;;;;;;;28.29;41.08;101495.91;4994918;28;20380;-81
2022/07/20 08:00:26;;;;;;;16.00;13.65;;;;;;;28.35;40.17;101491.63;4991005;28;20026;-81
2022/07/20 08:02:51;;;;;;;18.85;13.73;;;;;;;28.52;40.38;101482.31;4997704;28;20034;-82
2022/07/20 08:05:17;;;;;;;15.57;12.82;;;;;;;28.92;39.06;101469.34;5007644;28;20030;-81
2022/07/20 08:07:42;;;;;;;17.42;12.43;;;;;;;29.38;37.99;101463.84;5001124;28;20129;-80
2022/07/20 08:10:08;;;;;;;17.00;12.90;;;;;;;29.67;37.44;101468.53;4998202;28;20022;-80
2022/07/20 08:12:35;;;;;;;18.00;13.00;;;;;;;30.12;36.94;101470.22;4997865;28;20034;-81
2022/07/20 08:15:00;;;;;;;18.20;12.20;;;;;;;30.74;35.94;101472.50;5002125;28;20058;-82
2022/07/20 08:17:26;;;;;;;16.27;12.10;;;;;;;31.19;35.01;101464.91;4998384;28;20037;-81
2022/07/20 08:19:51;;;;;;;16.48;12.30;;;;;;;31.71;34.12;101471.84;4996426;28;20037;-81
2022/07/20 08:22:17;;;;;;;17.05;11.70;;;;;;;32.24;32.84;101480.44;4994781;28;20034;-82
2022/07/20 08:24:42;;;;;;;15.10;11.75;;;;;;;32.15;33.57;101481.66;4992155;28;20161;-82
2022/07/20 08:27:07;;;;;;;14.65;10.85;;;;;;;32.04;32.92;101470.38;4991568;28;20483;-82
2022/07/20 08:29:33;;;;;;;14.55;10.82;;;;;;;32.10;32.63;101475.91;4992105;28;20160;-83
2022/07/20 08:31:58;;;;;;;11.68;10.45;;;;;;;32.31;32.62;101476.84;4995371;28;20034;-85
2022/07/20 08:34:26;;;;;;;15.13;11.02;;;;;;;32.09;32.76;101474.22;5009742;28;20042;-84
2022/07/20 08:36:52;;;;;;;13.63;10.90;;;;;;;32.81;31.96;101474.69;5006845;28;20022;-86
2022/07/20 08:39:17;;;;;;;13.18;10.55;;;;;;;33.54;30.30;101494.09;5004537;28;20045;-87
2022/07/20 08:41:44;;;;;;;15.40;10.07;;;;;;;34.06;29.93;101484.84;5004152;28;20033;-88
2022/07/20 08:44:09;;;;;;;12.88;10.90;;;;;;;34.71;28.74;101489.47;5001218;28;20017;-88
2022/07/20 08:46:36;;;;;;;16.98;12.05;;;;;;;35.38;28.11;101501.75;5001530;28;20026;-88
2022/07/20 08:49:02;;;;;;;13.05;9.95;;;;;;;35.98;26.96;101498.44;5001790;28;20096;-88
2022/07/20 08:51:27;;;;;;;12.23;9.93;;;;;;;35.93;27.03;101463.09;4997757;28;20041;-88
2022/07/20 08:53:55;;;;;;;13.40;10.52;;;;;;;36.00;27.09;101438.97;5009118;28;20133;-89
2022/07/20 08:56:21;;;;;;;12.10;10.02;;;;;;;35.78;27.32;101432.16;5018403;28;20397;-88
2022/07/20 08:58:46;;;;;;;15.57;9.88;;;;;;;35.06;28.46;101440.09;5006213;28;20434;-88
2022/07/20 09:01:16;;;;;;;14.73;10.07;;;;;;;34.12;30.27;101445.31;4991390;28;20033;-88
2022/07/20 09:03:44;;;;;;;18.10;10.77;;;;;;;33.39;29.69;101423.38;5008397;28;20077;-88
2022/07/20 09:06:10;;;;;;;10.75;9.20;;;;;;;32.96;30.06;101461.59;5030201;28;20087;-88
2022/07/20 09:08:57;;;;;;;13.65;10.00;;;;;;;32.15;31.13;101525.72;5005766;28;20128;-88
2022/07/20 09:11:24;;;;;;;11.40;9.30;;;;;;;31.32;32.20;101545.84;4993710;28;20053;-87
2022/07/20 09:13:49;;;;;;;12.35;9.85;;;;;;;31.03;33.93;101547.66;5001521;28;20061;-87
2022/07/20 09:16:29;;;;;;;12.57;9.50;;;;;;;31.55;33.13;101553.84;5006221;28;20022;-88
2022/07/20 09:18:55;;;;;;;13.98;9.70;;;;;;;32.77;31.56;101531.28;5019045;28;20041;-88
2022/07/20 09:21:28;;;;;;;12.63;9.90;;;;;;;34.46;29.54;101545.50;5011090;28;20074;-88
2022/07/20 09:23:54;;;;;;;15.13;10.30;;;;;;;35.12;27.31;101547.94;5005120;28;20802;-87
2022/07/20 09:26:20;;;;;;;12.85;10.23;;;;;;;34.47;28.22;101563.75;5031783;28;20117;-89
2022/07/20 09:28:47;;;;;;;13.57;10.30;;;;;;;33.80;28.90;101552.00;5009364;28;20030;-88
2022/07/20 09:31:26;;;;;;;12.90;9.77;;;;;;;33.41;29.98;101567.50;5006623;28;20493;-88
2022/07/20 09:33:51;;;;;;;15.93;10.35;;;;;;;33.95;29.46;101562.84;5009333;28;20037;-88
2022/07/20 09:36:18;;;;;;;11.40;10.20;;;;;;;35.34;27.13;101553.09;4996615;28;20048;-88
2022/07/20 09:38:43;;;;;;;13.85;10.38;;;;;;;36.13;26.39;101548.78;5008025;28;20292;-88
2022/07/20 09:41:27;;;;;;;11.90;10.68;;;;;;;36.80;26.97;101554.34;5006065;28;20026;-89
2022/07/20 09:43:53;;;;;;;13.60;10.77;;;;;;;37.47;24.81;101538.41;5012013;28;20148;-88
2022/07/20 09:46:33;;;;;;;14.23;10.65;;;;;;;36.94;25.85;101538.38;5028079;28;20042;-87
2022/07/20 09:49:04;;;;;;;13.43;11.15;;;;;;;35.98;26.02;101538.06;5015901;28;20391;-88
2022/07/20 09:51:32;;;;;;;16.38;11.07;;;;;;;35.58;27.10;101534.84;5002159;28;20093;-87
2022/07/20 09:54:10;;;;;;;11.55;10.35;;;;;;;36.19;26.03;101535.91;5012017;28;20387;-88
2022/07/20 09:56:38;;;;;;;14.52;10.30;;;;;;;36.64;25.90;101528.13;4997545;28;20375;-88
2022/07/20 09:59:08;;;;;;;14.32;10.23;;;;;;;36.52;26.35;101539.16;5002392;28;20032;-88
2022/07/20 10:01:36;;;;;;;12.50;10.35;;;;;;;35.93;26.64;101566.44;5002336;28;20084;-89
2022/07/20 10:04:05;;;;;;;11.57;10.38;;;;;;;35.09;27.55;101567.75;5004154;28;20579;-87
2022/07/20 10:06:30;;;;;;;12.68;10.48;;;;;;;35.04;28.39;101563.97;5016067;28;20025;-86
2022/07/20 10:08:56;;;;;;;13.45;10.40;;;;;;;35.46;28.73;101551.31;5001238;28;20033;-87
2022/07/20 10:11:25;;;;;;;12.95;10.20;;;;;;;35.90;25.93;101563.25;4999967;28;20053;-88
2022/07/20 10:13:52;;;;;;;13.02;10.13;;;;;;;35.48;26.39;101563.00;5018504;28;20046;-88
2022/07/20 10:16:36;;;;;;;13.77;9.75;;;;;;;34.27;28.54;101550.00;5018238;28;20028;-87
2022/07/20 10:19:04;;;;;;;13.90;9.93;;;;;;;32.87;30.83;101546.38;5023490;28;20133;-87
2022/07/20 10:21:45;;;;;;;11.25;9.65;;;;;;;32.02;31.76;101566.94;5019550;28;20026;-87
2022/07/20 10:24:31;;;;;;;12.90;9.38;;;;;;;31.19;32.62;101569.38;5023747;28;20061;-87
2022/07/20 10:27:17;;;;;;;12.38;9.77;;;;;;;30.98;33.69;101559.22;5018978;28;20033;-86
2022/07/20 10:29:48;;;;;;;14.25;10.02;;;;;;;31.01;33.54;101564.31;5030202;28;20051;-87
2022/07/20 10:32:22;;;;;;;10.52;9.35;;;;;;;31.31;33.28;101568.88;5026755;28;20024;-86
2022/07/20 10:34:50;;;;;;;12.55;9.95;;;;;;;31.93;33.07;101552.47;5007800;28;20034;-86
2022/07/20 10:37:35;;;;;;;13.75;10.48;;;;;;;33.83;30.13;101543.31;5026531;28;20118;-86
2022/07/20 10:40:03;;;;;;;13.20;10.45;;;;;;;35.54;27.45;101537.22;5022270;28;20040;-86
2022/07/20 10:42:34;;;;;;;11.48;8.45;;;;;;;35.48;26.89;101535.31;5017546;28;20040;-86
2022/07/20 10:45:15;;;;;;;14.00;9.55;;;;;;;34.76;28.18;101531.97;5027903;28;20518;-87
2022/07/20 10:47:43;;;;;;;10.40;9.15;;;;;;;35.29;27.90;101525.25;5028767;28;20098;-86
2022/07/20 10:50:11;;;;;;;11.23;7.15;;;;;;;36.63;24.90;101543.91;5041024;28;20044;-86
2022/07/20 10:52:36;;;;;;;10.18;8.30;;;;;;;37.76;23.70;101528.28;5007763;28;20064;-86
2022/07/20 10:55:03;;;;;;;8.98;7.75;;;;;;;38.32;23.56;101553.75;5006875;28;20038;-86
2022/07/20 10:57:31;;;;;;;9.63;7.32;;;;;;;39.40;23.14;101559.47;5003471;28;20034;-85
2022/07/20 11:00:11;;;;;;;8.68;7.75;;;;;;;40.51;22.13;101560.28;5001271;28;20022;-85
2022/07/20 11:02:37;;;;;;;9.02;7.15;;;;;;;41.05;19.95;101553.91;5006443;28;20037;-87
2022/07/20 11:05:03;;;;;;;8.20;7.03;;;;;;;41.20;20.24;101564.41;5007345;28;20034;-84
2022/07/20 11:07:31;;;;;;;9.63;7.07;;;;;;;41.35;19.64;101563.72;5007019;28;20041;-85
2022/07/20 11:09:57;;;;;;;10.02;8.60;;;;;;;40.94;20.15;101566.94;5002886;28;20120;-85
2022/07/20 11:12:29;;;;;;;8.85;7.10;;;;;;;39.59;21.37;101555.34;5008884;28;20022;-84
2022/07/20 11:14:56;;;;;;;8.20;7.30;;;;;;;39.27;22.44;101552.28;5004682;28;20046;-86
2022/07/20 11:17:22;;;;;;;14.18;7.63;;;;;;;40.41;21.43;101549.00;4997597;28;20432;-87